createdAt,value
2022-11-08T00:00:13.260Z,61.19
2022-11-08T00:03:00.701Z,61.04
2022-11-08T00:06:04.855Z,60.89
2022-11-08T00:09:10.679Z,60.91
2022-11-08T00:12:15.119Z,61.05
2022-11-08T00:15:03.158Z,60.98
2022-11-08T00:17:50.197Z,60.81
2022-11-08T00:20:37.495Z,60.76
2022-11-08T00:23:24.430Z,60.96
2022-11-08T00:26:13.170Z,61.23
2022-11-08T00:29:00.166Z,61.86
2022-11-08T00:31:47.494Z,61.48
2022-11-08T00:34:34.788Z,61.53
2022-11-08T00:37:23.107Z,61.53
2022-11-08T00:40:11.399Z,61.57
2022-11-08T00:42:59.995Z,61.50
2022-11-08T00:45:46.794Z,61.57
2022-11-08T00:48:33.704Z,61.37
2022-11-08T00:51:20.541Z,61.22
2022-11-08T00:54:09.082Z,61.23
2022-11-08T00:56:56.500Z,61.11
2022-11-08T00:59:45.146Z,61.30
2022-11-08T01:02:32.095Z,61.39
2022-11-08T01:05:19.364Z,61.48
2022-11-08T01:08:06.322Z,61.58
2022-11-08T01:10:54.222Z,61.58
2022-11-08T01:13:42.256Z,61.76
2022-11-08T01:16:33.742Z,61.72
2022-11-08T01:19:20.617Z,61.83
2022-11-08T01:22:08.291Z,61.71
2022-11-08T01:24:55.231Z,61.88
2022-11-08T01:27:43.593Z,61.85
2022-11-08T01:30:30.622Z,61.82
2022-11-08T01:33:19.476Z,61.73
2022-11-08T01:36:07.930Z,61.56
2022-11-08T01:38:55.752Z,61.45
2022-11-08T01:41:43.064Z,61.32
2022-11-08T01:44:30.174Z,61.24
2022-11-08T01:47:16.984Z,61.10
2022-11-08T01:50:09.085Z,61.09
2022-11-08T01:52:57.028Z,61.29
2022-11-08T01:55:44.318Z,61.37
2022-11-08T01:58:37.163Z,61.27
2022-11-08T02:01:24.327Z,61.34
2022-11-08T02:04:13.454Z,61.40
2022-11-08T02:07:02.805Z,61.56
2022-11-08T02:09:50.055Z,61.54
2022-11-08T02:12:37.034Z,61.37
2022-11-08T02:15:26.299Z,61.49
2022-11-08T02:18:14.156Z,61.57
2022-11-08T02:21:09.648Z,61.38
2022-11-08T02:24:00.549Z,61.53
2022-11-08T02:26:48.482Z,61.58
2022-11-08T02:29:36.822Z,61.48
2022-11-08T02:32:24.780Z,61.59
2022-11-08T02:35:16.064Z,61.73
2022-11-08T02:38:02.985Z,61.98
2022-11-08T02:40:52.804Z,61.91
2022-11-08T02:43:40.056Z,61.87
2022-11-08T02:46:26.920Z,61.84
2022-11-08T02:49:14.458Z,61.78
2022-11-08T02:52:01.367Z,61.59
2022-11-08T02:54:48.877Z,61.57
2022-11-08T02:57:37.344Z,61.62
2022-11-08T03:00:24.824Z,61.53
2022-11-08T03:03:11.869Z,61.53
2022-11-08T03:05:59.453Z,61.45
2022-11-08T03:08:46.057Z,61.32
2022-11-08T03:11:33.034Z,61.50
2022-11-08T03:14:21.476Z,61.53
2022-11-08T03:17:08.336Z,61.85
2022-11-08T03:19:56.240Z,61.89
2022-11-08T03:22:43.780Z,61.77
2022-11-08T03:25:31.107Z,61.77
2022-11-08T03:28:22.700Z,61.75
2022-11-08T03:31:11.553Z,61.55
2022-11-08T03:33:58.853Z,61.57
2022-11-08T03:36:45.692Z,61.46
2022-11-08T03:39:33.105Z,61.67
2022-11-08T03:42:19.921Z,61.69
2022-11-08T03:45:08.207Z,61.72
2022-11-08T03:47:56.341Z,61.80
2022-11-08T03:50:43.664Z,62.00
2022-11-08T03:53:30.570Z,61.83
2022-11-08T03:56:17.820Z,62.12
2022-11-08T03:59:05.010Z,62.37
2022-11-08T04:01:52.224Z,62.22
2022-11-08T04:04:40.871Z,62.29
2022-11-08T04:07:28.703Z,62.35
2022-11-08T04:10:17.839Z,62.41
2022-11-08T04:13:22.202Z,62.18
2022-11-08T04:16:13.901Z,62.17
2022-11-08T04:19:21.414Z,62.80
2022-11-08T04:22:12.304Z,63.49
2022-11-08T04:24:59.343Z,63.92
2022-11-08T04:27:47.913Z,63.73
2022-11-08T04:30:36.137Z,63.35
2022-11-08T04:33:26.118Z,63.29
2022-11-08T04:36:16.006Z,63.27
2022-11-08T04:39:05.353Z,63.06
2022-11-08T04:41:54.537Z,63.09
2022-11-08T04:44:45.443Z,62.92
2022-11-08T04:47:37.641Z,62.90
2022-11-08T04:50:26.949Z,62.84
2022-11-08T04:53:13.788Z,62.47
2022-11-08T04:56:07.651Z,62.23
2022-11-08T04:58:56.322Z,62.26
2022-11-08T05:01:43.924Z,61.96
2022-11-08T05:04:30.972Z,62.04
2022-11-08T05:07:18.164Z,62.01
2022-11-08T05:10:05.586Z,62.23
2022-11-08T05:12:58.107Z,62.22
2022-11-08T05:15:44.810Z,62.57
2022-11-08T05:18:32.645Z,62.49
2022-11-08T05:21:38.762Z,62.55
2022-11-08T05:24:25.821Z,62.93
2022-11-08T05:27:12.460Z,63.42
2022-11-08T05:30:00.916Z,63.44
2022-11-08T05:32:47.664Z,63.36
2022-11-08T05:35:35.135Z,63.28
2022-11-08T05:38:22.562Z,63.27
2022-11-08T05:41:12.551Z,63.20
2022-11-08T05:43:59.468Z,63.39
2022-11-08T05:46:48.205Z,63.41
2022-11-08T05:49:35.324Z,63.48
2022-11-08T05:52:22.631Z,63.60
2022-11-08T05:55:10.363Z,63.54
2022-11-08T05:57:57.383Z,63.31
2022-11-08T06:00:44.203Z,63.33
2022-11-08T06:03:33.222Z,63.12
2022-11-08T06:06:21.651Z,63.26
2022-11-08T06:09:09.515Z,63.11
2022-11-08T06:11:56.454Z,63.09
2022-11-08T06:14:43.469Z,63.23
2022-11-08T06:17:30.445Z,63.00
2022-11-08T06:20:19.260Z,62.96
2022-11-08T06:23:06.190Z,62.90
2022-11-08T06:25:53.444Z,62.81
2022-11-08T06:28:40.201Z,62.79
2022-11-08T06:31:27.747Z,62.68
2022-11-08T06:34:14.662Z,63.06
2022-11-08T06:37:03.331Z,63.77
2022-11-08T06:39:50.361Z,63.85
2022-11-08T06:42:37.675Z,63.93
2022-11-08T06:45:24.388Z,64.02
2022-11-08T06:48:11.711Z,63.96
2022-11-08T06:50:58.397Z,63.81
2022-11-08T06:53:47.156Z,63.74
2022-11-08T06:56:34.572Z,63.78
2022-11-08T06:59:21.815Z,63.81
2022-11-08T07:02:10.263Z,63.71
2022-11-08T07:04:57.584Z,63.57
2022-11-08T07:07:44.466Z,63.06
2022-11-08T07:10:34.430Z,63.04
2022-11-08T07:13:21.678Z,62.81
2022-11-08T07:16:09.973Z,62.63
2022-11-08T07:18:56.695Z,62.50
2022-11-08T07:21:43.491Z,62.55
2022-11-08T07:24:30.290Z,62.77
2022-11-08T07:27:18.713Z,62.85
2022-11-08T07:30:06.649Z,62.82
2022-11-08T07:32:56.133Z,62.66
2022-11-08T07:35:43.021Z,62.80
2022-11-08T07:38:30.258Z,62.46
2022-11-08T07:41:17.359Z,62.59
2022-11-08T07:44:05.988Z,62.62
2022-11-08T07:46:52.734Z,62.49
2022-11-08T07:49:39.673Z,62.42
2022-11-08T07:52:50.820Z,62.56
2022-11-08T07:55:42.069Z,62.45
2022-11-08T07:58:32.302Z,62.11
2022-11-08T08:01:26.174Z,62.42
2022-11-08T08:04:38.814Z,62.26
2022-11-08T08:07:44.377Z,62.17
2022-11-08T08:10:35.070Z,62.20
2022-11-08T08:13:47.482Z,62.00
2022-11-08T08:16:37.927Z,61.98
2022-11-08T08:19:25.878Z,61.73
2022-11-08T08:22:15.471Z,61.67
2022-11-08T08:25:05.889Z,61.56
2022-11-08T08:27:55.080Z,61.56
2022-11-08T08:30:43.612Z,61.67
2022-11-08T08:33:51.083Z,61.30
2022-11-08T08:37:01.605Z,61.50
2022-11-08T08:39:50.969Z,61.31
2022-11-08T08:42:54.063Z,60.74
2022-11-08T08:45:41.992Z,60.76
2022-11-08T08:48:29.389Z,60.91
2022-11-08T08:51:21.465Z,60.60
2022-11-08T08:54:29.629Z,60.67
2022-11-08T08:57:19.616Z,60.30
2022-11-08T09:03:24.492Z,60.36
2022-11-08T09:06:31.939Z,59.80
2022-11-08T09:09:39.778Z,60.33
2022-11-08T09:12:26.275Z,59.68
2022-11-08T09:15:13.598Z,58.94
2022-11-08T09:18:00.580Z,59.67
2022-11-08T09:20:48.457Z,59.60
2022-11-08T09:23:36.912Z,58.28
2022-11-08T09:26:24.127Z,58.90
2022-11-08T09:29:10.809Z,59.16
2022-11-08T09:31:57.911Z,59.23
2022-11-08T09:34:45.628Z,59.03
2022-11-08T09:37:32.435Z,59.02
2022-11-08T09:40:24.651Z,59.23
2022-11-08T09:43:31.672Z,58.29
2022-11-08T09:46:28.848Z,57.13
2022-11-08T09:49:22.850Z,57.88
2022-11-08T09:52:17.305Z,58.03
2022-11-08T09:55:17.138Z,57.89
2022-11-08T09:58:22.633Z,56.89
2022-11-08T10:01:12.574Z,56.74
2022-11-08T10:04:03.421Z,57.88
2022-11-08T10:07:09.936Z,58.43
2022-11-08T10:10:25.351Z,56.27
2022-11-08T10:13:27.823Z,56.19
2022-11-08T10:16:38.118Z,57.20
2022-11-08T10:19:53.187Z,56.09
2022-11-08T10:22:50.023Z,56.88
2022-11-08T10:25:45.387Z,56.72
2022-11-08T10:28:37.848Z,56.92
2022-11-08T10:31:24.542Z,57.34
2022-11-08T10:34:16.148Z,57.38
2022-11-08T10:37:06.464Z,57.09
2022-11-08T10:39:59.595Z,56.83
2022-11-08T10:42:51.534Z,57.34
2022-11-08T10:45:40.386Z,57.21
2022-11-08T10:48:27.248Z,56.80
2022-11-08T10:51:14.325Z,56.71
2022-11-08T10:54:01.626Z,56.64
2022-11-08T10:56:56.562Z,57.01
2022-11-08T10:59:44.081Z,56.42
2022-11-08T11:02:36.518Z,57.28
2022-11-08T11:05:35.631Z,56.45
2022-11-08T11:08:23.110Z,55.42
2022-11-08T11:11:24.451Z,56.59
2022-11-08T11:14:21.820Z,53.89
2022-11-08T11:17:17.762Z,54.99
2022-11-08T11:20:07.187Z,54.24
2022-11-08T11:22:54.518Z,55.21
2022-11-08T11:25:51.731Z,55.06
2022-11-08T11:28:38.953Z,53.18
2022-11-08T11:31:26.064Z,54.84
2022-11-08T11:34:36.916Z,55.27
2022-11-08T11:37:30.933Z,52.30
2022-11-08T11:40:25.614Z,53.79
2022-11-08T11:43:19.710Z,53.25
2022-11-08T11:46:14.550Z,54.09
2022-11-08T11:49:05.755Z,53.84
2022-11-08T11:51:55.033Z,54.51
2022-11-08T11:54:46.319Z,53.98
2022-11-08T11:57:41.440Z,53.84
2022-11-08T12:00:28.354Z,52.93
2022-11-08T12:03:31.877Z,53.00
2022-11-08T12:06:44.046Z,52.15
2022-11-08T12:09:42.702Z,51.57
2022-11-08T12:12:46.479Z,52.05
2022-11-08T12:15:42.468Z,51.77
2022-11-08T12:18:44.917Z,51.77
2022-11-08T12:21:41.294Z,51.63
2022-11-08T12:24:43.600Z,51.98
2022-11-08T12:27:45.059Z,52.49
2022-11-08T12:30:39.227Z,51.43
2022-11-08T12:33:37.273Z,52.08
2022-11-08T12:36:33.778Z,51.53
2022-11-08T12:39:34.363Z,53.27
2022-11-08T12:42:56.101Z,52.13
2022-11-08T12:45:56.724Z,51.10
2022-11-08T12:49:20.156Z,51.29
2022-11-08T12:52:19.894Z,49.51
2022-11-08T12:55:14.748Z,51.42
2022-11-08T12:58:03.890Z,51.23
2022-11-08T13:00:55.669Z,53.03
2022-11-08T13:04:20.230Z,51.14
2022-11-08T13:07:17.331Z,48.74
2022-11-08T13:10:13.811Z,49.45
2022-11-08T13:13:25.588Z,49.60
2022-11-08T13:16:16.515Z,47.81
2022-11-08T13:19:05.849Z,48.91
2022-11-08T13:21:53.308Z,50.47
2022-11-08T13:24:44.713Z,51.14
2022-11-08T13:27:35.208Z,49.27
2022-11-08T13:30:40.344Z,48.13
2022-11-08T13:33:32.469Z,46.91
2022-11-08T13:36:28.497Z,48.79
2022-11-08T13:39:32.188Z,48.16
2022-11-08T13:42:39.098Z,47.27
2022-11-08T13:45:30.893Z,46.60
2022-11-08T13:48:42.378Z,48.82
2022-11-08T13:51:30.742Z,46.80
2022-11-08T13:54:48.544Z,50.17
2022-11-08T13:58:00.012Z,47.29
2022-11-08T14:00:47.740Z,46.75
2022-11-08T14:03:56.760Z,49.69
2022-11-08T14:06:52.036Z,47.21
2022-11-08T14:09:46.609Z,48.92
2022-11-08T14:12:42.585Z,48.39
2022-11-08T14:15:35.542Z,49.05
2022-11-08T14:18:27.461Z,49.06
2022-11-08T14:21:20.049Z,48.64
2022-11-08T14:24:07.796Z,48.84
2022-11-08T14:26:55.114Z,49.54
2022-11-08T14:29:42.636Z,49.90
2022-11-08T14:32:30.621Z,50.05
2022-11-08T14:35:25.842Z,50.07
2022-11-08T14:38:16.260Z,49.03
2022-11-08T14:41:05.504Z,49.60
2022-11-08T14:43:55.163Z,49.80
2022-11-08T14:46:42.157Z,49.77
2022-11-08T14:49:34.469Z,49.55
2022-11-08T14:52:24.572Z,49.48
2022-11-08T14:55:15.172Z,49.82
2022-11-08T14:58:13.728Z,49.41
2022-11-08T15:01:03.097Z,48.27
2022-11-08T15:03:55.510Z,49.99
2022-11-08T15:06:45.604Z,49.47
2022-11-08T15:09:36.201Z,49.79
2022-11-08T15:12:26.183Z,49.70
2022-11-08T15:15:21.263Z,49.33
2022-11-08T15:18:17.409Z,48.92
2022-11-08T15:21:07.064Z,49.59
2022-11-08T15:23:54.934Z,50.04
2022-11-08T15:27:01.067Z,50.10
2022-11-08T15:29:55.320Z,49.51
2022-11-08T15:32:42.961Z,49.23
2022-11-08T15:35:35.098Z,50.01
2022-11-08T15:38:31.387Z,50.23
2022-11-08T15:41:32.930Z,50.16
2022-11-08T15:44:23.925Z,50.63
2022-11-08T15:47:44.532Z,51.12
2022-11-08T15:50:33.248Z,50.77
2022-11-08T15:53:20.932Z,50.67
2022-11-08T15:56:08.380Z,50.73
2022-11-08T15:58:55.948Z,50.65
2022-11-08T16:01:50.740Z,50.81
2022-11-08T16:04:39.313Z,51.36
2022-11-08T16:07:26.837Z,51.06
2022-11-08T16:10:14.877Z,51.11
2022-11-08T16:13:01.575Z,51.21
2022-11-08T16:15:49.182Z,51.09
2022-11-08T16:18:36.102Z,51.17
2022-11-08T16:21:24.138Z,51.31
2022-11-08T16:24:11.075Z,51.16
2022-11-08T16:26:58.381Z,51.46
2022-11-08T16:29:45.111Z,51.41
2022-11-08T16:32:32.338Z,51.50
2022-11-08T16:35:20.088Z,51.48
2022-11-08T16:38:11.438Z,51.73
2022-11-08T16:40:58.071Z,51.57
2022-11-08T16:43:45.507Z,51.66
2022-11-08T16:46:32.213Z,51.46
2022-11-08T16:49:26.770Z,51.54
2022-11-08T16:52:14.769Z,51.57
2022-11-08T16:55:04.607Z,51.58
2022-11-08T16:57:51.574Z,51.60
2022-11-08T17:00:39.872Z,51.59
2022-11-08T17:03:29.685Z,51.62
2022-11-08T17:06:19.204Z,51.70
2022-11-08T17:09:06.064Z,51.70
2022-11-08T17:11:54.221Z,51.72
2022-11-08T17:14:41.043Z,51.72
2022-11-08T17:17:28.547Z,51.73
2022-11-08T17:20:17.219Z,51.72
2022-11-08T17:23:04.502Z,51.71
2022-11-08T17:25:51.106Z,51.70
2022-11-08T17:28:39.768Z,51.70
2022-11-08T17:31:26.765Z,51.75
2022-11-08T17:34:13.994Z,51.77
2022-11-08T17:37:01.109Z,51.76
2022-11-08T17:39:48.520Z,51.77
2022-11-08T17:42:38.252Z,51.77
2022-11-08T17:45:27.674Z,51.82
2022-11-08T17:48:15.561Z,51.75
2022-11-08T17:51:03.008Z,51.74
2022-11-08T17:53:50.052Z,51.67
2022-11-08T17:56:37.455Z,51.63
2022-11-08T17:59:24.422Z,51.63
2022-11-08T18:02:13.625Z,51.62
2022-11-08T18:05:00.623Z,51.61
2022-11-08T18:07:47.603Z,51.63
2022-11-08T18:10:35.750Z,51.69
2022-11-08T18:13:23.726Z,51.72
2022-11-08T18:16:23.265Z,51.85
2022-11-08T18:19:12.378Z,51.64
2022-11-08T18:22:07.240Z,51.94
2022-11-08T18:25:00.476Z,51.88
2022-11-08T18:27:50.607Z,51.90
2022-11-08T18:30:38.397Z,51.94
2022-11-08T18:33:26.086Z,51.91
2022-11-08T18:36:16.821Z,51.84
2022-11-08T18:39:05.045Z,51.83
2022-11-08T18:42:01.428Z,52.06
2022-11-08T18:44:49.481Z,52.05
2022-11-08T18:47:36.395Z,52.08
2022-11-08T18:50:23.958Z,52.10
2022-11-08T18:53:12.558Z,52.11
2022-11-08T18:56:00.284Z,52.12
2022-11-08T18:58:47.819Z,52.14
2022-11-08T19:01:35.228Z,52.16
2022-11-08T19:04:22.142Z,52.19
2022-11-08T19:07:10.196Z,52.27
2022-11-08T19:09:58.535Z,52.23
2022-11-08T19:12:45.652Z,52.22
2022-11-08T19:15:32.701Z,52.33
2022-11-08T19:18:20.135Z,52.33
2022-11-08T19:21:09.491Z,52.39
2022-11-08T19:23:59.117Z,52.38
2022-11-08T19:26:47.306Z,52.39
2022-11-08T19:29:34.557Z,52.40
2022-11-08T19:32:23.194Z,52.39
2022-11-08T19:35:11.046Z,52.34
2022-11-08T19:37:58.262Z,52.33
2022-11-08T19:40:47.274Z,52.27
2022-11-08T19:43:36.656Z,52.32
2022-11-08T19:46:26.787Z,52.32
2022-11-08T19:49:13.821Z,52.35
2022-11-08T19:52:01.415Z,52.38
2022-11-08T19:54:48.287Z,52.41
2022-11-08T19:57:35.955Z,52.34
2022-11-08T20:00:24.268Z,52.29
2022-11-08T20:03:11.607Z,52.16
2022-11-08T20:05:59.036Z,52.19
2022-11-08T20:08:48.599Z,52.16
2022-11-08T20:11:37.922Z,51.96
2022-11-08T20:14:25.389Z,52.09
2022-11-08T20:17:13.724Z,52.14
2022-11-08T20:20:01.278Z,52.06
2022-11-08T20:22:48.463Z,52.09
2022-11-08T20:25:36.622Z,52.00
2022-11-08T20:28:23.987Z,52.01
2022-11-08T20:31:17.199Z,51.93
2022-11-08T20:34:10.341Z,51.90
2022-11-08T20:36:57.502Z,51.83
2022-11-08T20:39:44.711Z,51.92
2022-11-08T20:42:31.936Z,51.98
2022-11-08T20:45:18.739Z,52.00
2022-11-08T20:48:06.666Z,51.99
2022-11-08T20:50:57.809Z,51.98
2022-11-08T20:53:46.015Z,51.84
2022-11-08T20:56:33.181Z,51.92
2022-11-08T20:59:20.624Z,51.92
2022-11-08T21:02:07.614Z,51.88
2022-11-08T21:04:55.159Z,51.93
2022-11-08T21:10:56.267Z,51.93
2022-11-08T21:13:44.842Z,52.01
2022-11-08T21:16:59.504Z,52.00
2022-11-08T21:19:40.861Z,52.00
2022-11-08T21:22:27.870Z,52.12
2022-11-08T21:25:16.333Z,52.13
2022-11-08T21:28:03.838Z,52.15
2022-11-08T21:30:51.004Z,52.20
2022-11-08T21:33:38.705Z,52.27
2022-11-08T21:36:27.030Z,52.39
2022-11-08T21:39:14.363Z,52.49
2022-11-08T21:42:02.565Z,52.51
2022-11-08T21:44:49.562Z,52.62
2022-11-08T21:47:36.578Z,52.65
2022-11-08T21:50:24.213Z,52.68
2022-11-08T21:53:13.771Z,52.67
2022-11-08T21:56:01.107Z,52.70
2022-11-08T21:58:49.430Z,52.60
2022-11-08T22:01:36.187Z,52.67
2022-11-08T22:04:23.555Z,52.71
2022-11-08T22:07:10.108Z,52.70
2022-11-08T22:09:57.566Z,52.72
2022-11-08T22:12:44.425Z,52.70
2022-11-08T22:15:32.530Z,52.72
2022-11-08T22:18:31.187Z,52.75
2022-11-08T22:21:39.435Z,52.70
2022-11-08T22:24:26.424Z,52.63
2022-11-08T22:27:14.091Z,52.66
2022-11-08T22:30:01.371Z,52.71
2022-11-08T22:32:50.053Z,52.68
2022-11-08T22:35:36.659Z,52.59
2022-11-08T22:38:23.915Z,52.58
2022-11-08T22:41:10.773Z,52.51
2022-11-08T22:43:58.309Z,52.43
2022-11-08T22:46:46.536Z,52.39
2022-11-08T22:49:34.996Z,52.40
2022-11-08T22:52:21.700Z,52.35
2022-11-08T22:55:10.072Z,52.27
2022-11-08T22:57:56.958Z,52.29
2022-11-08T23:00:43.943Z,52.23
2022-11-08T23:03:30.899Z,52.13
2022-11-08T23:06:19.225Z,52.02
2022-11-08T23:09:06.078Z,52.06
2022-11-08T23:12:10.507Z,52.03
2022-11-08T23:15:23.073Z,52.00
2022-11-08T23:18:10.422Z,52.01
2022-11-08T23:21:14.926Z,51.98
2022-11-08T23:24:21.183Z,52.01
2022-11-08T23:27:26.173Z,52.09
2022-11-08T23:30:33.347Z,52.19
2022-11-08T23:33:20.245Z,52.19
2022-11-08T23:36:15.584Z,52.23
2022-11-08T23:39:03.879Z,52.32
2022-11-08T23:42:08.463Z,52.28
2022-11-08T23:44:54.991Z,52.30
2022-11-08T23:47:41.894Z,52.47
2022-11-08T23:50:28.790Z,52.45
2022-11-08T23:53:16.517Z,52.48
2022-11-08T23:56:05.508Z,52.57
2022-11-08T23:58:53.335Z,52.58
